Time;durP1;ratioP1;P1;durP2;ratioP2;P2;SDS_P1;SDS_P2;PMS_P1;PMS_P2;Temp;Humidity;BMP_temperature;BMP_pressure;BME280_temperature;BME280_humidity;BME280_pressure;Samples;Min_cycle;Max_cycle;Signal;HPM_P1;HPM_P2
2022/09/03 00:00:54;;;;;;;1.52;1.42;;;;;;;20.76;56.85;96253.13;10546815;28;20487;-28
2022/09/03 00:06:16;;;;;;;2.17;1.98;;;;;;;20.76;56.75;96248.03;10539986;28;20043;-27
2022/09/03 00:11:24;;;;;;;2.13;1.92;;;;;;;20.75;56.75;96246.38;10556713;28;20546;-28
2022/09/03 00:16:30;;;;;;;1.98;1.88;;;;;;;20.76;57.03;96253.13;10545307;28;20069;-28
2022/09/03 00:21:50;;;;;;;2.17;2.00;;;;;;;20.86;56.36;96258.91;10545716;28;20038;-29
2022/09/03 00:26:58;;;;;;;1.83;1.73;;;;;;;20.89;56.48;96249.53;10539445;28;20036;-28
2022/09/03 00:32:05;;;;;;;1.73;1.52;;;;;;;20.83;56.81;96257.25;10552132;28;20410;-29
2022/09/03 00:37:07;;;;;;;2.50;2.30;;;;;;;20.80;57.09;96254.75;10553993;28;20031;-30
2022/09/03 00:42:23;;;;;;;2.25;1.77;;;;;;;20.79;57.13;96264.97;10553936;28;20023;-29
2022/09/03 00:47:28;;;;;;;1.90;1.80;;;;;;;20.77;57.24;96253.94;10542614;28;20122;-28
2022/09/03 00:52:55;;;;;;;1.77;1.58;;;;;;;20.75;57.02;96246.38;10552727;28;20051;-28
2022/09/03 00:58:10;;;;;;;1.65;1.40;;;;;;;20.71;57.30;96239.63;10502653;28;20047;-28
2022/09/03 01:03:18;;;;;;;2.13;1.77;;;;;;;20.74;57.17;96247.25;10549661;28;20027;-28
2022/09/03 01:08:34;;;;;;;2.13;1.90;;;;;;;20.79;57.05;96242.91;10554880;28;20062;-28
2022/09/03 01:14:06;;;;;;;2.10;1.90;;;;;;;20.86;57.02;96241.97;10553393;28;20487;-28
2022/09/03 01:19:24;;;;;;;1.92;1.70;;;;;;;20.85;57.30;96247.88;10548113;28;20702;-28
2022/09/03 01:25:16;;;;;;;2.08;1.88;;;;;;;20.80;57.32;96239.47;10552953;28;20027;-28
2022/09/03 01:30:19;;;;;;;2.90;2.17;;;;;;;20.78;57.73;96253.94;10512746;28;20056;-28
2022/09/03 01:35:48;;;;;;;3.58;2.28;;;;;;;20.77;57.51;96249.72;10550799;27;20032;-27
2022/09/03 01:46:41;;;;;;;2.78;2.10;;;;;;;20.74;57.83;96259.97;10522217;28;20044;-28
2022/09/03 01:51:42;;;;;;;3.53;1.98;;;;;;;20.72;57.98;96251.47;10547147;28;20039;-28
2022/09/03 01:57:21;;;;;;;2.97;2.03;;;;;;;20.82;57.58;96252.19;10544880;28;20043;-28
2022/09/03 02:02:24;;;;;;;2.22;2.03;;;;;;;20.87;57.30;96251.28;10544544;28;20036;-28
2022/09/03 02:07:32;;;;;;;2.58;2.38;;;;;;;20.80;57.58;96249.66;10547147;28;20082;-28
2022/09/03 02:12:36;;;;;;;2.70;2.22;;;;;;;20.77;58.07;96254.81;10550258;28;20056;-28
2022/09/03 02:17:39;;;;;;;2.10;1.90;;;;;;;20.77;58.06;96262.44;10550526;28;20403;-29
2022/09/03 02:22:42;;;;;;;4.30;2.22;;;;;;;20.75;58.43;96276.91;10539159;28;20034;-28
2022/09/03 02:27:43;;;;;;;2.50;2.30;;;;;;;20.73;58.35;96276.06;10556721;28;20046;-29
2022/09/03 02:32:44;;;;;;;2.35;2.20;;;;;;;20.73;58.48;96281.16;10549505;28;20399;-28
2022/09/03 02:37:44;;;;;;;3.85;2.58;;;;;;;20.73;58.33;96286.22;10546610;28;20039;-28
2022/09/03 02:42:45;;;;;;;3.53;2.10;;;;;;;20.78;58.22;96286.16;10549265;28;20036;-28
2022/09/03 02:47:51;;;;;;;2.45;2.25;;;;;;;20.84;58.12;96283.53;10548996;28;20297;-28
2022/09/03 02:52:52;;;;;;;2.65;2.40;;;;;;;20.77;58.25;96285.34;10554976;28;20028;-28
2022/09/03 02:57:52;;;;;;;2.75;2.55;;;;;;;20.77;58.09;96285.34;10550039;28;20025;-28
2022/09/03 03:02:54;;;;;;;2.70;2.50;;;;;;;20.73;58.40;96278.59;10561964;28;20036;-27
2022/09/03 03:07:57;;;;;;;2.42;2.17;;;;;;;20.73;58.38;96273.50;10556514;28;20177;-28
2022/09/03 03:12:57;;;;;;;3.75;2.30;;;;;;;20.73;58.52;96276.06;10561772;28;20035;-29
2022/09/03 03:17:58;;;;;;;2.97;2.43;;;;;;;20.71;58.59;96282.06;10556403;28;20035;-30
2022/09/03 03:23:00;;;;;;;4.07;2.10;;;;;;;20.72;58.22;96284.56;10555126;28;20122;-28
2022/09/03 03:28:03;;;;;;;2.40;2.17;;;;;;;20.71;58.28;96280.34;10555941;28;20066;-28
2022/09/03 03:33:03;;;;;;;2.65;2.33;;;;;;;20.80;57.97;96290.38;10555200;28;20048;-27
2022/09/03 03:38:04;;;;;;;2.83;2.08;;;;;;;20.81;58.01;96289.50;10555391;28;20043;-28
2022/09/03 03:43:04;;;;;;;2.30;2.00;;;;;;;20.78;58.22;96286.16;10552055;28;20023;-28
2022/09/03 03:48:05;;;;;;;2.73;2.20;;;;;;;20.74;58.45;96282.00;10554268;28;20032;-28
2022/09/03 03:53:05;;;;;;;3.23;2.80;;;;;;;20.63;58.28;96266.91;10551364;28;20164;-29
2022/09/03 03:58:05;;;;;;;3.50;3.20;;;;;;;20.70;58.52;96287.97;10548940;28;20042;-29
2022/09/03 04:03:05;;;;;;;13.07;2.80;;;;;;;20.70;58.34;96286.28;10556041;28;20042;-28
2022/09/03 04:08:06;;;;;;;2.63;2.30;;;;;;;20.66;58.66;96287.22;10549384;28;20139;-29
2022/09/03 04:13:06;;;;;;;8.53;2.70;;;;;;;20.67;59.08;96288.91;10558362;28;20032;-28
2022/09/03 04:18:07;;;;;;;2.43;2.23;;;;;;;20.71;58.38;96280.34;10540698;28;20345;-28
2022/09/03 04:23:07;;;;;;;7.03;2.38;;;;;;;20.74;58.31;96277.75;10546930;28;20035;-28
2022/09/03 04:28:07;;;;;;;2.23;2.03;;;;;;;20.71;58.48;96275.25;10541325;28;20036;-28
2022/09/03 04:33:08;;;;;;;2.40;2.20;;;;;;;20.71;58.56;96274.44;10552516;28;20036;-27
2022/09/03 04:38:09;;;;;;;2.70;1.70;;;;;;;20.69;58.46;96279.53;10552593;28;20035;-28
2022/09/03 04:43:09;;;;;;;2.85;1.60;;;;;;;20.67;58.67;96278.72;10552744;28;20035;-28
2022/09/03 04:48:10;;;;;;;2.27;1.60;;;;;;;20.67;58.65;96283.81;10549516;28;20035;-28
2022/09/03 04:53:11;;;;;;;2.20;2.00;;;;;;;20.64;58.43;96276.19;10550518;28;20035;-28
2022/09/03 04:58:11;;;;;;;1.70;1.57;;;;;;;20.68;58.70;96270.22;10538596;28;20046;-28
2022/09/03 05:03:11;;;;;;;1.50;1.40;;;;;;;20.68;58.85;96279.53;10556763;28;20032;-27
2022/09/03 05:08:12;;;;;;;1.53;1.43;;;;;;;20.72;58.39;96271.84;10544720;28;20036;-28
2022/09/03 05:13:12;;;;;;;1.40;1.30;;;;;;;20.70;58.75;96282.91;10556264;28;20036;-28
2022/09/03 05:18:13;;;;;;;3.53;1.90;;;;;;;20.69;58.79;96274.44;10549707;28;20088;-27
2022/09/03 05:23:13;;;;;;;1.95;1.60;;;;;;;20.66;59.05;96273.66;10546766;28;20399;-28
2022/09/03 05:28:13;;;;;;;1.80;1.70;;;;;;;20.66;58.93;96274.50;10550669;28;20035;-28
2022/09/03 05:33:14;;;;;;;2.20;1.70;;;;;;;20.67;59.22;96283.81;10552597;28;20036;-28
2022/09/03 05:38:16;;;;;;;2.58;1.60;;;;;;;20.65;59.28;96288.06;10537936;28;20036;-28
2022/09/03 05:43:17;;;;;;;2.88;1.80;;;;;;;20.64;59.39;96286.38;10535011;28;20028;-29
2022/09/03 05:48:17;;;;;;;2.10;1.90;;;;;;;20.60;59.74;96278.81;10558265;28;20032;-28
2022/09/03 05:53:17;;;;;;;1.50;1.40;;;;;;;20.67;59.51;96293.97;10538869;28;20036;-29
2022/09/03 05:58:18;;;;;;;1.75;1.60;;;;;;;20.69;59.32;96286.31;10537118;28;20093;-28
2022/09/03 06:03:18;;;;;;;3.40;1.77;;;;;;;20.62;60.07;96277.13;10547994;28;20126;-28
2022/09/03 06:08:20;;;;;;;1.98;1.77;;;;;;;20.67;59.54;96283.81;10546200;28;20059;-28
2022/09/03 06:13:20;;;;;;;2.50;1.63;;;;;;;20.70;59.64;96287.97;10540591;28;20089;-28
2022/09/03 06:18:21;;;;;;;2.17;1.80;;;;;;;20.69;59.71;96276.97;10537668;28;20128;-28
2022/09/03 06:23:22;;;;;;;2.03;1.83;;;;;;;20.67;59.66;96273.63;10536890;28;20056;-28
2022/09/03 06:28:22;;;;;;;1.92;1.75;;;;;;;20.66;60.05;96277.03;10533247;28;20044;-27
2022/09/03 06:33:23;;;;;;;2.83;1.83;;;;;;;20.67;60.05;96281.25;10549727;28;20033;-30
2022/09/03 06:38:26;;;;;;;2.83;2.35;;;;;;;20.71;59.91;96276.97;10538583;28;20043;-28
2022/09/03 06:43:28;;;;;;;2.30;2.10;;;;;;;20.78;59.46;96271.75;10528247;28;20028;-28
2022/09/03 06:48:30;;;;;;;3.42;2.05;;;;;;;20.75;60.29;96281.13;10548464;28;20534;-28
2022/09/03 06:53:33;;;;;;;3.72;1.85;;;;;;;20.76;59.78;96283.66;10542714;28;20050;-28
2022/09/03 06:58:36;;;;;;;2.97;2.22;;;;;;;20.69;60.22;96292.25;10533941;28;20035;-28
2022/09/03 07:03:38;;;;;;;1.92;1.80;;;;;;;20.72;60.23;96297.28;10521403;28;20589;-29
2022/09/03 07:08:40;;;;;;;2.33;2.10;;;;;;;20.69;60.49;96286.31;10529306;28;20060;-29
2022/09/03 07:13:43;;;;;;;2.42;2.03;;;;;;;20.69;60.63;96284.63;10543246;28;20032;-28
2022/09/03 07:18:45;;;;;;;2.35;1.88;;;;;;;20.69;60.79;96276.97;10547878;28;20559;-28
2022/09/03 07:23:46;;;;;;;1.77;1.67;;;;;;;20.72;60.71;96271.00;10521042;28;20384;-28
2022/09/03 07:28:47;;;;;;;4.15;2.03;;;;;;;20.81;59.88;96281.88;10517297;28;20804;-28
2022/09/03 07:33:48;;;;;;;3.22;2.60;;;;;;;20.82;60.36;96292.91;10525536;28;20047;-28
2022/09/03 07:38:48;;;;;;;2.83;2.13;;;;;;;20.80;60.58;96287.81;10555815;28;20047;-28
2022/09/03 07:43:49;;;;;;;2.67;1.83;;;;;;;20.85;60.61;96277.56;10555498;28;20092;-28
2022/09/03 07:48:51;;;;;;;2.42;1.90;;;;;;;20.80;60.54;96280.19;10557391;28;20027;-29
2022/09/03 07:53:55;;;;;;;2.60;2.17;;;;;;;20.75;60.92;96278.59;10552466;28;20383;-29
2022/09/03 07:58:58;;;;;;;3.10;2.10;;;;;;;20.77;60.67;96277.72;10544447;28;20039;-28
2022/09/03 08:03:59;;;;;;;2.00;1.80;;;;;;;20.81;60.41;96278.50;10557374;28;20024;-28
2022/09/03 08:09:06;;;;;;;3.10;2.10;;;;;;;20.76;60.33;96291.28;10552215;28;20024;-28
2022/09/03 08:14:11;;;;;;;1.88;1.73;;;;;;;20.85;60.15;96303.88;10550594;28;20406;-29
2022/09/03 08:19:13;;;;;;;2.13;1.60;;;;;;;20.90;60.14;96307.19;10546120;28;20512;-29
2022/09/03 08:24:15;;;;;;;2.50;1.52;;;;;;;20.89;59.84;96319.97;10545348;28;20597;-28
2022/09/03 08:29:16;;;;;;;2.13;1.75;;;;;;;20.87;59.84;96321.69;10526195;28;20070;-28
2022/09/03 08:34:17;;;;;;;2.08;1.60;;;;;;;20.83;59.82;96325.97;10517998;28;20906;-28
2022/09/03 08:39:17;;;;;;;11.38;2.63;;;;;;;20.84;60.22;96342.91;10527836;28;20108;-27
2022/09/03 08:44:33;;;;;;;6.30;2.10;;;;;;;20.71;60.73;96343.94;10521735;28;20032;-29
2022/09/03 08:49:36;;;;;;;2.20;1.75;;;;;;;20.70;60.62;96343.94;10541172;28;20352;-28
2022/09/03 08:54:37;;;;;;;2.30;1.73;;;;;;;20.64;61.28;96349.16;10552553;28;20036;-28
2022/09/03 08:59:37;;;;;;;8.60;2.23;;;;;;;20.87;60.68;96363.22;10549767;28;20036;-27
2022/09/03 09:04:53;;;;;;;4.13;2.10;;;;;;;20.94;60.38;96369.06;10554489;28;20043;-28
2022/09/03 09:10:17;;;;;;;4.13;1.98;;;;;;;20.92;60.88;96375.88;10554979;28;20309;-28
2022/09/03 09:15:42;;;;;;;3.70;1.88;;;;;;;20.90;60.81;96377.63;10548639;28;20071;-28
2022/09/03 09:20:54;;;;;;;5.57;2.25;;;;;;;20.87;61.89;96378.50;10530824;28;20097;-27
2022/09/03 09:25:58;;;;;;;4.43;2.55;;;;;;;20.84;62.29;96375.13;10553939;28;20054;-28
2022/09/03 09:31:01;;;;;;;6.28;2.25;;;;;;;20.83;62.67;96366.69;10547505;28;20047;-29
2022/09/03 09:36:07;;;;;;;6.10;2.30;;;;;;;20.82;63.39;96385.31;10552402;28;20040;-28
2022/09/03 09:41:15;;;;;;;7.77;2.27;;;;;;;20.82;63.51;96398.03;10539330;28;20043;-27
2022/09/03 09:46:21;;;;;;;4.75;2.28;;;;;;;20.86;63.16;96442.13;10543957;28;20046;-28
2022/09/03 09:51:32;;;;;;;4.90;2.00;;;;;;;20.91;63.08;96448.88;10518789;28;20036;-28
2022/09/03 09:56:32;;;;;;;3.13;2.10;;;;;;;20.93;63.13;96429.31;10539315;28;20110;-28
2022/09/03 10:01:37;;;;;;;4.87;1.97;;;;;;;20.83;63.86;96448.09;10535758;28;20035;-27
2022/09/03 10:06:54;;;;;;;5.55;2.70;;;;;;;20.84;63.23;96438.75;10539282;28;20031;-27
2022/09/03 10:12:13;;;;;;;6.30;2.20;;;;;;;20.80;63.45;96437.94;10542916;28;20123;-28
2022/09/03 10:17:48;;;;;;;5.53;2.03;;;;;;;20.76;63.74;96446.50;10540871;28;20040;-28
2022/09/03 10:23:13;;;;;;;7.55;2.10;;;;;;;20.74;64.13;96460.09;10523126;28;20051;-28
2022/09/03 10:28:14;;;;;;;8.35;2.47;;;;;;;20.70;64.52;96464.38;10538297;28;20043;-28
2022/09/03 10:33:31;;;;;;;5.23;2.40;;;;;;;20.69;64.71;96483.03;10542468;28;20495;-27
2022/09/03 10:38:33;;;;;;;5.82;2.00;;;;;;;20.77;63.78;96486.34;10529557;28;20044;-29
2022/09/03 10:44:11;;;;;;;6.70;1.83;;;;;;;20.84;63.74;96474.38;10543480;28;20028;-28
2022/09/03 10:49:29;;;;;;;4.65;1.85;;;;;;;20.78;63.87;96470.22;10536009;28;20036;-28
2022/09/03 10:54:33;;;;;;;3.67;1.52;;;;;;;20.76;63.98;96461.75;10547834;28;20550;-29
2022/09/03 10:59:53;;;;;;;2.70;1.27;;;;;;;20.74;64.06;96438.03;10542819;28;20040;-28
2022/09/03 11:05:14;;;;;;;4.63;2.05;;;;;;;20.71;64.64;96435.53;10537432;28;20036;-28
2022/09/03 11:10:25;;;;;;;5.07;1.33;;;;;;;20.70;64.82;96436.38;10555112;28;20065;-28
2022/09/03 11:15:33;;;;;;;2.80;1.33;;;;;;;20.72;64.57;96438.91;10543890;28;20032;-28
2022/09/03 11:20:34;;;;;;;3.22;1.48;;;;;;;20.74;64.81;96448.22;10548751;28;20085;-27
2022/09/03 11:25:40;;;;;;;1.60;1.27;;;;;;;20.79;63.85;96446.44;10557074;28;20049;-28
2022/09/03 11:31:12;;;;;;;1.30;1.08;;;;;;;20.83;64.05;96445.56;10556080;28;20100;-30
2022/09/03 11:36:19;;;;;;;2.17;1.20;;;;;;;20.78;64.54;96449.00;10547880;28;20096;-28
2022/09/03 11:41:26;;;;;;;2.00;1.20;;;;;;;20.76;64.24;96451.59;10556860;28;20072;-28
2022/09/03 11:46:27;;;;;;;;;;;;;;;20.79;64.25;96454.06;10547031;28;20525;-27
2022/09/03 11:51:32;;;;;;;3.08;1.00;;;;;;;20.82;63.83;96450.66;10547863;28;19912;-29
2022/09/03 11:56:34;;;;;;;1.08;0.77;;;;;;;20.77;64.47;96438.00;10552736;28;20119;-27
2022/09/03 12:01:36;;;;;;;1.33;1.05;;;;;;;20.80;64.19;96435.41;10554072;28;20550;-27
2022/09/03 12:07:07;;;;;;;1.88;1.00;;;;;;;20.85;63.65;96438.72;10551163;28;20131;-28
2022/09/03 12:12:29;;;;;;;1.20;1.00;;;;;;;20.95;63.53;96425.03;10555346;28;20063;-30
2022/09/03 12:18:18;;;;;;;3.33;0.90;;;;;;;21.15;63.46;96428.13;10547861;28;20048;-28
2022/09/03 12:23:38;;;;;;;2.08;1.00;;;;;;;20.95;63.32;96412.31;10550506;28;20411;-27
2022/09/03 12:28:41;;;;;;;1.95;1.00;;;;;;;20.92;63.13;96407.28;10537074;28;20107;-28
2022/09/03 12:33:42;;;;;;;1.13;0.65;;;;;;;20.88;63.42;96408.19;10554608;28;20028;-29
2022/09/03 12:38:42;;;;;;;1.47;1.37;;;;;;;20.90;63.27;96411.53;10553755;28;20044;-28
2022/09/03 12:43:50;;;;;;;1.40;0.70;;;;;;;20.87;63.38;96406.50;10550455;28;20039;-28
2022/09/03 12:49:02;;;;;;;1.13;0.90;;;;;;;20.90;62.98;96403.06;10554104;28;20028;-28
2022/09/03 12:54:06;;;;;;;1.70;0.70;;;;;;;20.93;62.89;96408.97;10549656;28;20556;-29
2022/09/03 12:59:14;;;;;;;1.70;0.70;;;;;;;20.95;63.00;96414.88;10535027;28;20054;-27
2022/09/03 13:04:31;;;;;;;0.65;0.63;;;;;;;21.09;62.88;96419.75;10554151;28;20035;-28
2022/09/03 13:09:35;;;;;;;0.70;0.63;;;;;;;21.05;62.91;96421.50;10551092;28;20028;-28
2022/09/03 13:14:45;;;;;;;2.47;0.82;;;;;;;20.95;62.26;96416.56;10553777;28;20063;-28
2022/09/03 13:20:18;;;;;;;0.88;0.50;;;;;;;20.94;62.48;96407.25;10544210;28;20029;-28
2022/09/03 13:25:52;;;;;;;0.63;0.63;;;;;;;20.92;62.54;96408.97;10556859;28;20043;-28
2022/09/03 13:31:11;;;;;;;0.80;0.73;;;;;;;20.90;62.36;96409.00;10527305;28;20044;-28
2022/09/03 13:36:19;;;;;;;2.55;0.80;;;;;;;20.93;62.49;96414.06;10550072;28;20036;-28
2022/09/03 13:41:19;;;;;;;2.72;0.70;;;;;;;20.92;62.34;96414.91;10555025;28;20201;-28
2022/09/03 13:46:39;;;;;;;0.63;0.50;;;;;;;20.91;62.34;96397.13;10545613;28;20111;-28
2022/09/03 13:51:49;;;;;;;0.80;0.60;;;;;;;20.99;62.37;96398.66;10539968;28;20055;-28
2022/09/03 13:56:58;;;;;;;0.82;0.60;;;;;;;21.03;62.70;96400.31;10548675;28;20028;-28
2022/09/03 14:02:26;;;;;;;1.23;0.70;;;;;;;20.99;62.11;96402.94;10553793;28;20085;-28
2022/09/03 14:07:43;;;;;;;0.57;0.57;;;;;;;20.90;62.01;96388.63;10547950;28;20067;-28
2022/09/03 14:12:49;;;;;;;0.90;0.65;;;;;;;20.92;61.98;96392.00;10543520;28;20119;-28
2022/09/03 14:18:13;;;;;;;0.50;0.50;;;;;;;20.94;61.93;96387.72;10543766;28;20131;-27
2022/09/03 14:23:31;;;;;;;1.10;0.60;;;;;;;20.91;62.12;96390.34;10538850;28;20036;-27
2022/09/03 14:28:39;;;;;;;0.82;0.70;;;;;;;20.93;61.82;96388.59;10547635;28;20044;-28
2022/09/03 14:34:04;;;;;;;0.60;0.52;;;;;;;20.95;61.59;96393.66;10537690;28;20524;-28
2022/09/03 14:39:22;;;;;;;1.77;0.82;;;;;;;20.96;61.75;96388.53;10542710;28;20091;-28
2022/09/03 14:44:49;;;;;;;0.60;0.52;;;;;;;21.02;61.65;96380.81;10546739;28;20036;-28
2022/09/03 14:50:04;;;;;;;1.38;0.65;;;;;;;21.05;61.65;96379.94;10541748;28;20064;-28
2022/09/03 14:55:12;;;;;;;0.60;0.50;;;;;;;21.02;61.40;96378.28;10555945;28;20062;-29
2022/09/03 15:00:19;;;;;;;0.70;0.70;;;;;;;20.98;61.49;96369.00;10551142;28;20063;-28
2022/09/03 15:05:57;;;;;;;0.60;0.60;;;;;;;20.96;61.39;96363.09;10552479;28;20407;-28
2022/09/03 15:11:00;;;;;;;1.02;0.63;;;;;;;20.96;61.33;96362.28;10550414;28;20032;-29
2022/09/03 15:16:00;;;;;;;0.70;0.60;;;;;;;20.96;61.23;96368.19;10546976;27;20036;-27
2022/09/03 15:21:27;;;;;;;0.53;0.53;;;;;;;20.97;61.13;96381.75;10550896;28;20032;-27
2022/09/03 15:26:34;;;;;;;;;;;;;;;20.99;61.35;96383.41;10544869;28;20040;-29
2022/09/03 15:32:00;;;;;;;0.60;0.52;;;;;;;21.08;61.56;96377.34;10554266;28;19912;-27
2022/09/03 15:37:19;;;;;;;0.67;0.50;;;;;;;21.02;61.45;96385.91;10546739;28;20036;-28
2022/09/03 15:42:28;;;;;;;0.50;0.43;;;;;;;21.13;61.35;96378.94;10557575;28;20326;-28
2022/09/03 15:47:54;;;;;;;1.10;0.70;;;;;;;21.04;61.36;96389.28;10542719;28;20039;-28
2022/09/03 15:53:32;;;;;;;0.60;0.50;;;;;;;21.04;61.16;96391.00;10535324;28;20568;-28
2022/09/03 15:58:39;;;;;;;1.48;0.60;;;;;;;21.07;61.15;96394.31;10547074;28;20035;-29
2022/09/03 16:03:59;;;;;;;0.88;0.60;;;;;;;21.01;61.30;96391.88;10554931;28;20081;-28
2022/09/03 16:09:08;;;;;;;0.90;0.60;;;;;;;21.01;61.02;96384.25;10550879;28;20085;-28
2022/09/03 16:14:20;;;;;;;0.57;0.57;;;;;;;21.16;61.04;96384.00;10554651;28;20042;-29
2022/09/03 16:19:34;;;;;;;0.90;0.60;;;;;;;21.29;60.86;96389.75;10550046;27;20028;-28
2022/09/03 16:24:52;;;;;;;0.60;0.60;;;;;;;21.19;60.77;96394.13;10557308;28;20035;-28
2022/09/03 16:29:57;;;;;;;0.77;0.77;;;;;;;21.11;61.12;96393.41;10538795;28;20509;-28
2022/09/03 16:35:16;;;;;;;0.80;0.77;;;;;;;21.10;61.18;96396.81;10552102;28;20043;-28
2022/09/03 16:40:41;;;;;;;0.70;0.70;;;;;;;21.07;61.02;96396.03;10555796;28;20039;-28
2022/09/03 16:45:50;;;;;;;0.70;0.70;;;;;;;21.03;60.90;96400.31;10543711;28;20116;-28
2022/09/03 16:51:14;;;;;;;0.98;0.80;;;;;;;21.01;61.10;96396.09;10549483;28;20039;-28
2022/09/03 16:56:35;;;;;;;0.60;0.60;;;;;;;21.00;61.31;96400.38;10551012;28;20040;-27
2022/09/03 17:01:51;;;;;;;0.70;0.63;;;;;;;21.04;61.24;96402.00;10549216;28;20031;-28
2022/09/03 17:07:15;;;;;;;0.80;0.80;;;;;;;21.11;61.04;96395.97;10550517;28;20066;-28
2022/09/03 17:12:25;;;;;;;0.90;0.80;;;;;;;21.05;61.11;96390.94;10556563;28;20040;-27
2022/09/03 17:17:42;;;;;;;0.93;0.93;;;;;;;21.00;61.40;96395.28;10542191;28;20043;-28
2022/09/03 17:23:13;;;;;;;1.88;0.90;;;;;;;20.98;61.85;96396.16;10548074;28;20031;-28
2022/09/03 17:28:44;;;;;;;1.40;0.80;;;;;;;20.96;62.21;96393.63;10542235;28;20472;-28
2022/09/03 17:34:14;;;;;;;1.08;0.95;;;;;;;20.93;62.89;96396.25;10540357;28;20518;-27
2022/09/03 17:39:42;;;;;;;1.38;1.17;;;;;;;20.94;63.16;96403.00;10552881;28;20137;-28
2022/09/03 17:45:01;;;;;;;1.40;1.30;;;;;;;20.89;63.27;96407.31;10538172;28;20024;-27
2022/09/03 17:50:11;;;;;;;1.10;1.00;;;;;;;20.93;62.27;96419.13;10546811;28;20043;-27
2022/09/03 17:55:29;;;;;;;1.05;0.90;;;;;;;21.00;62.21;96419.88;10550488;28;20032;-28
2022/09/03 18:01:07;;;;;;;2.42;1.20;;;;;;;20.92;62.60;96435.28;10544582;28;20555;-28
2022/09/03 18:06:19;;;;;;;1.10;1.00;;;;;;;20.90;62.83;96444.63;10540272;28;20542;-28
2022/09/03 18:11:37;;;;;;;2.80;1.42;;;;;;;20.87;62.77;96449.75;10554475;28;20058;-27
2022/09/03 18:16:47;;;;;;;1.10;0.90;;;;;;;20.83;63.12;96462.50;10542974;28;20521;-27
2022/09/03 20:12:12;;;;;;;1.55;1.20;;;;;;;20.67;62.28;96581.44;10558033;28;20295;-27
2022/09/03 20:17:33;;;;;;;2.58;1.25;;;;;;;20.73;61.94;96580.53;10552534;28;20032;-27
2022/09/03 20:22:45;;;;;;;1.17;1.00;;;;;;;20.72;62.04;96589.84;10535976;28;20025;-28
2022/09/03 20:28:02;;;;;;;1.70;1.30;;;;;;;20.72;61.91;96583.94;10552408;28;20248;-28
2022/09/03 20:33:26;;;;;;;1.35;1.25;;;;;;;20.70;61.88;96583.94;10538744;28;20039;-28
2022/09/03 20:38:48;;;;;;;1.42;1.10;;;;;;;20.69;62.06;96589.91;10543392;28;20035;-28
2022/09/03 20:43:49;;;;;;;2.30;1.27;;;;;;;20.69;61.84;96586.50;10547774;28;20034;-29
2022/09/03 20:49:06;;;;;;;2.65;1.23;;;;;;;20.66;61.78;96579.75;10553594;28;20035;-28
2022/09/03 20:54:20;;;;;;;1.83;1.15;;;;;;;20.61;61.80;96581.50;10549346;28;20055;-28
2022/09/03 20:59:52;;;;;;;1.45;1.02;;;;;;;20.63;61.90;96587.41;10545939;28;20040;-28
2022/09/03 21:05:16;;;;;;;2.83;1.42;;;;;;;20.63;61.79;96587.41;10545339;28;20028;-27
2022/09/03 21:10:32;;;;;;;2.70;1.00;;;;;;;20.69;61.69;96596.66;10555314;28;20090;-28
2022/09/03 21:15:35;;;;;;;0.93;0.93;;;;;;;20.66;61.58;96600.13;10542009;28;20035;-28
2022/09/03 21:21:15;;;;;;;1.83;1.02;;;;;;;20.64;61.51;96590.81;10544702;28;20078;-28
2022/09/03 21:26:22;;;;;;;2.75;1.10;;;;;;;20.63;61.42;96597.59;10550447;28;20089;-28
2022/09/03 21:31:36;;;;;;;4.25;1.40;;;;;;;20.59;61.48;96605.25;10548529;28;20040;-28
2022/09/03 21:36:38;;;;;;;2.15;1.02;;;;;;;20.58;61.49;96609.53;10542426;28;20077;-27
2022/09/03 21:41:51;;;;;;;1.55;1.35;;;;;;;20.55;61.62;96614.63;10538650;28;20043;-28
2022/09/03 21:46:55;;;;;;;1.77;1.25;;;;;;;20.56;61.51;96623.13;10545670;28;20059;-28
2022/09/03 21:52:06;;;;;;;1.88;1.35;;;;;;;20.60;61.43;96633.25;10547376;28;20040;-28
2022/09/03 21:57:21;;;;;;;2.28;1.20;;;;;;;20.64;61.41;96629.78;10547868;28;20031;-27
2022/09/03 22:02:27;;;;;;;2.15;1.35;;;;;;;20.59;61.33;96620.53;10547974;28;20028;-28
2022/09/03 22:08:10;;;;;;;2.37;1.30;;;;;;;20.60;61.16;96628.16;10547472;28;20056;-29
2022/09/03 22:13:34;;;;;;;2.13;1.00;;;;;;;20.60;61.31;96622.22;10475155;28;20301;-28
2022/09/03 22:18:35;;;;;;;1.38;1.13;;;;;;;20.56;61.06;96625.66;10550270;28;20096;-28
2022/09/03 22:23:42;;;;;;;2.25;1.30;;;;;;;20.56;61.32;96635.81;10546940;28;20102;-28
2022/09/03 22:29:01;;;;;;;2.42;1.13;;;;;;;20.55;61.29;96629.88;10532397;28;20067;-28
2022/09/03 22:34:50;;;;;;;2.28;1.75;;;;;;;20.55;61.17;96629.88;10551098;28;20031;-28
2022/09/03 22:39:57;;;;;;;3.28;1.35;;;;;;;20.53;61.22;96631.59;10542922;28;20047;-28
2022/09/03 22:45:03;;;;;;;2.17;1.42;;;;;;;20.56;61.19;96638.38;10552339;28;20109;-29
2022/09/03 22:50:25;;;;;;;1.83;1.20;;;;;;;20.55;61.06;96646.88;10545877;28;20402;-28
2022/09/03 22:55:26;;;;;;;3.92;1.33;;;;;;;20.59;60.83;96645.97;10548765;28;20068;-30
2022/09/03 23:00:28;;;;;;;2.50;1.35;;;;;;;20.56;60.90;96646.81;10544589;28;20043;-28
2022/09/03 23:05:34;;;;;;;4.30;1.17;;;;;;;20.57;61.02;96651.06;10549614;28;20054;-28
2022/09/03 23:10:52;;;;;;;3.20;1.20;;;;;;;20.53;61.00;96651.09;10556810;28;20051;-27
2022/09/03 23:16:03;;;;;;;1.85;1.00;;;;;;;20.51;60.72;96653.69;10546487;28;20046;-28
2022/09/03 23:21:20;;;;;;;3.15;1.17;;;;;;;20.51;60.81;96663.00;10551534;28;20410;-27
2022/09/03 23:26:33;;;;;;;1.73;1.00;;;;;;;20.48;60.89;96656.22;10550183;28;20483;-28
2022/09/03 23:31:33;;;;;;;1.00;1.00;;;;;;;20.52;60.75;96660.44;10556936;28;20192;-28
2022/09/03 23:37:09;;;;;;;2.33;1.50;;;;;;;20.54;60.68;96665.53;10557239;28;20590;-28
2022/09/03 23:42:18;;;;;;;1.42;1.20;;;;;;;20.52;60.67;96665.53;10552672;28;20035;-28
2022/09/03 23:47:42;;;;;;;1.48;1.10;;;;;;;20.50;60.89;96664.72;10550776;28;20419;-28
2022/09/03 23:52:51;;;;;;;1.40;1.10;;;;;;;20.47;60.83;96672.34;10544784;28;20051;-28
2022/09/03 23:58:08;;;;;;;3.33;1.20;;;;;;;20.47;60.73;96681.69;10552049;28;20032;-28
